Aden, IL

10:10 AM CST on November 26, 2014 (GMT -0600)
Garrison, il | Change Station
CLOSE
Current Station
Personal Weather Station
Location: Illinois, IL
Elevation: 427 ft
Nearby Weather Stations

Elev 427 ft 38.25 °N, 88.52 °W | Updated 5 minutes ago

Partly Cloudy
Partly Cloudy
34.7 °F
Feels Like 30 °F
N
5.3
Wind Variable Wind from SE

Today
High -- | Low -- °F
--% Chance of Precip.
Yesterday
High -- | Low -- °F
Precip. -- in
6:47 AM 4:35 PM
Waxing Crescent, 20% visible
Pressure 30.12 in
Visibility 10.0 miles
Clouds Clear
Windchill 30 °F
Dew Point 30 °F
Humidity 82%
Rainfall 0.00 in
Snow Depth Not available.
UV 2 out of 12
Pollen .30 out of 12
Air Quality Not available.
Flu Activity Not available.
METAR KFWC 261555Z AUTO 15005KT 10SM CLR 00/M02 A3012 RMK AO1 T00011022

More Conditions Fewer Conditions

Pressure 30.12 in
Visibility 10.0 miles
Clouds Clear
Windchill 30 °F
Dew Point 30 °F
Humidity 82%
Rainfall 0.00 in
Snow Depth Not available.
UV 2 out of 12
Pollen .30 out of 12
Air Quality Not available.
Flu Activity Not available.
METAR KFWC 261555Z AUTO 15005KT 10SM CLR 00/M02 A3012 RMK AO1 T00011022

More Conditions Fewer Conditions

10-Day Weather Forecast

Almanac

Astronomy

Nov. 26, 2014 Rise Set
Actual Time
Civil Twilight
Nautical Twilight
Astronomical Twilight
Moon
Length of Visible Light
Length of Day
Tomorrow will be .
, % of the Moon is Illuminated

Today's Extremes

State Highs State Lows

Community

WunderPhotos

Upload Photos

1,773,780 photos uploaded!

WunderBlogs® & News

Nearby

Air Quality

  Air Quality AQ Index Pollutant
Not available.

Snow Depth

Station Depth Elevation

Earthquake Activity

City Distance Mag. Time & Date
Minimum magnitude displayed is 2.5.

Coastal Water Temperatures

Place Temperature

Nearby Weather Stations